createdAt,value
2023-05-22T00:02:33.148Z,74.84
2023-05-22T00:05:39.220Z,74.83
2023-05-22T00:08:41.764Z,76.50
2023-05-22T00:11:44.181Z,74.36
2023-05-22T00:14:46.451Z,75.22
2023-05-22T00:17:48.732Z,74.97
2023-05-22T00:20:51.886Z,74.66
2023-05-22T00:23:54.159Z,74.77
2023-05-22T00:26:56.493Z,74.19
2023-05-22T00:29:59.374Z,74.48
2023-05-22T00:33:02.831Z,74.07
2023-05-22T00:36:06.203Z,74.41
2023-05-22T00:39:09.763Z,73.75
2023-05-22T00:42:12.534Z,74.63
2023-05-22T00:45:15.329Z,75.86
2023-05-22T00:48:17.608Z,75.24
2023-05-22T00:51:24.124Z,73.62
2023-05-22T00:54:26.571Z,72.10
2023-05-22T00:57:28.939Z,71.54
2023-05-22T01:00:34.316Z,71.61
2023-05-22T01:03:44.665Z,70.38
2023-05-22T01:06:47.758Z,69.11
2023-05-22T01:09:50.138Z,69.48
2023-05-22T01:13:10.324Z,69.57
2023-05-22T01:16:30.088Z,69.07
2023-05-22T01:19:39.482Z,68.92
2023-05-22T01:22:50.062Z,69.02
2023-05-22T01:26:04.861Z,66.78
2023-05-22T01:29:19.110Z,66.93
2023-05-22T01:32:26.240Z,67.32
2023-05-22T01:35:29.928Z,65.50
2023-05-22T01:38:32.771Z,66.09
2023-05-22T01:41:36.294Z,63.96
2023-05-22T01:44:38.959Z,64.69
2023-05-22T01:47:41.320Z,65.12
2023-05-22T01:50:45.395Z,65.52
2023-05-22T01:54:26.309Z,65.31
2023-05-22T01:57:37.537Z,64.46
2023-05-22T02:00:43.807Z,65.76
2023-05-22T02:03:51.816Z,66.14
2023-05-22T02:06:54.424Z,66.04
2023-05-22T02:09:57.792Z,67.11
2023-05-22T02:13:00.448Z,66.32
2023-05-22T02:16:04.194Z,66.50
2023-05-22T02:19:06.860Z,65.95
2023-05-22T02:22:13.814Z,66.94
2023-05-22T02:25:17.262Z,67.75
2023-05-22T02:28:20.827Z,68.54
2023-05-22T02:31:23.378Z,70.47
2023-05-22T02:34:26.904Z,67.69
2023-05-22T02:37:29.242Z,66.50
2023-05-22T02:40:31.514Z,66.08
2023-05-22T02:43:34.311Z,67.07
2023-05-22T02:46:36.933Z,68.09
2023-05-22T02:49:39.257Z,68.33
2023-05-22T02:52:41.539Z,70.46
2023-05-22T02:55:43.949Z,70.76
2023-05-22T02:58:46.204Z,69.92
2023-05-22T03:01:49.468Z,70.08
2023-05-22T03:04:51.855Z,68.92
2023-05-22T03:07:54.223Z,69.91
2023-05-22T03:10:58.153Z,72.18
2023-05-22T03:14:00.735Z,74.15
2023-05-22T03:17:03.714Z,73.17
2023-05-22T03:20:08.535Z,73.70
2023-05-22T03:23:12.074Z,72.20
2023-05-22T03:26:14.924Z,70.61
2023-05-22T03:29:17.756Z,71.19
2023-05-22T03:32:20.163Z,69.65
2023-05-22T03:35:24.798Z,71.03
2023-05-22T03:38:27.173Z,71.26
2023-05-22T03:41:30.709Z,72.30
2023-05-22T03:44:33.045Z,70.35
2023-05-22T03:47:36.718Z,69.00
2023-05-22T03:50:39.256Z,69.71
2023-05-22T03:53:41.747Z,69.98
2023-05-22T03:56:44.106Z,68.56
2023-05-22T03:59:46.713Z,67.86
2023-05-22T04:02:50.529Z,65.95
2023-05-22T04:05:53.498Z,68.10
2023-05-22T04:08:55.785Z,70.31
2023-05-22T04:11:59.498Z,67.74
2023-05-22T04:15:01.994Z,68.08
2023-05-22T04:18:06.558Z,70.18
2023-05-22T04:21:09.870Z,69.22
2023-05-22T04:24:12.329Z,72.11
2023-05-22T04:27:15.297Z,68.29
2023-05-22T04:30:18.482Z,65.98
2023-05-22T04:33:21.856Z,66.34
2023-05-22T04:36:26.201Z,63.79
2023-05-22T04:39:28.783Z,63.71
2023-05-22T04:42:37.440Z,61.19
2023-05-22T04:45:42.323Z,59.31
2023-05-22T04:48:44.858Z,62.92
2023-05-22T04:51:47.136Z,59.32
2023-05-22T04:54:51.699Z,62.92
2023-05-22T04:57:54.232Z,58.13
2023-05-22T05:00:57.840Z,59.14
2023-05-22T05:04:00.776Z,57.97
2023-05-22T05:07:04.465Z,59.90
2023-05-22T05:10:07.866Z,58.41
2023-05-22T05:13:10.264Z,54.10
2023-05-22T05:16:14.665Z,52.86
2023-05-22T05:19:17.757Z,51.10
2023-05-22T05:22:20.772Z,51.75
2023-05-22T05:25:23.304Z,49.56
2023-05-22T05:28:26.272Z,48.42
2023-05-22T05:31:29.420Z,54.19
2023-05-22T05:34:43.792Z,56.17
2023-05-22T05:37:55.723Z,52.94
2023-05-22T05:40:59.128Z,49.32
2023-05-22T05:44:02.758Z,50.29
2023-05-22T05:47:07.862Z,51.48
2023-05-22T05:50:11.014Z,52.29
2023-05-22T05:53:14.416Z,49.68
2023-05-22T05:56:21.932Z,47.44
2023-05-22T05:59:24.772Z,48.15
2023-05-22T06:02:34.652Z,51.25
2023-05-22T06:05:38.241Z,50.69
2023-05-22T06:08:57.241Z,56.39
2023-05-22T06:12:06.615Z,55.49
2023-05-22T06:15:09.104Z,58.07
2023-05-22T06:18:11.844Z,53.27
2023-05-22T06:21:14.769Z,55.93
2023-05-22T06:24:17.091Z,58.12
2023-05-22T06:27:20.112Z,56.19
2023-05-22T06:30:38.734Z,53.26
2023-05-22T06:33:44.936Z,52.44
2023-05-22T06:36:50.213Z,58.12
2023-05-22T06:39:53.366Z,56.54
2023-05-22T06:43:21.869Z,53.56
2023-05-22T06:46:31.304Z,52.42
2023-05-22T06:49:37.902Z,51.06
2023-05-22T06:52:40.426Z,53.88
2023-05-22T06:55:45.069Z,52.88
2023-05-22T06:58:54.779Z,50.96
2023-05-22T07:02:01.615Z,48.64
2023-05-22T07:05:22.151Z,45.99
2023-05-22T07:08:34.156Z,43.86
2023-05-22T07:11:38.096Z,40.25
2023-05-22T07:14:40.785Z,37.61
2023-05-22T07:17:43.358Z,36.82
2023-05-22T07:20:46.214Z,34.17
2023-05-22T07:23:55.368Z,35.36
2023-05-22T07:27:02.348Z,32.60
2023-05-22T07:30:06.592Z,32.80
2023-05-22T07:33:12.675Z,33.90
2023-05-22T07:36:19.385Z,31.19
2023-05-22T07:39:24.141Z,33.94
2023-05-22T07:42:35.081Z,31.68
2023-05-22T07:45:40.257Z,29.62
2023-05-22T07:48:47.276Z,30.42
2023-05-22T07:51:52.383Z,29.34
2023-05-22T07:55:02.308Z,28.66
2023-05-22T07:58:05.222Z,30.83
2023-05-22T08:01:13.030Z,27.55
2023-05-22T08:04:16.179Z,28.66
2023-05-22T08:07:18.667Z,29.53
2023-05-22T08:10:27.965Z,28.01
2023-05-22T08:13:32.424Z,27.70
2023-05-22T08:16:35.302Z,27.68
2023-05-22T08:19:37.891Z,28.40
2023-05-22T08:22:41.408Z,29.73
2023-05-22T08:25:43.950Z,30.04
2023-05-22T08:28:46.256Z,29.87
2023-05-22T08:31:48.582Z,28.65
2023-05-22T08:34:50.896Z,26.97
2023-05-22T08:37:53.305Z,26.38
2023-05-22T08:40:55.818Z,26.54
2023-05-22T08:43:58.349Z,25.48
2023-05-22T08:47:01.397Z,25.01
2023-05-22T08:50:04.695Z,26.04
2023-05-22T08:53:08.215Z,26.01
2023-05-22T08:56:10.609Z,27.82
2023-05-22T08:59:13.524Z,27.82
2023-05-22T09:02:17.653Z,26.45
2023-05-22T09:05:28.402Z,25.31
2023-05-22T09:08:30.845Z,25.39
2023-05-22T09:11:33.123Z,25.74
2023-05-22T09:14:42.963Z,26.61
2023-05-22T09:17:45.982Z,26.15
2023-05-22T09:20:48.343Z,25.59
2023-05-22T09:23:51.085Z,24.99
2023-05-22T09:26:53.414Z,24.24
2023-05-22T09:29:57.277Z,24.60
2023-05-22T09:32:59.635Z,24.58
2023-05-22T09:36:02.172Z,23.18
2023-05-22T09:39:05.150Z,22.07
2023-05-22T09:42:09.710Z,21.43
2023-05-22T09:45:12.769Z,20.93
2023-05-22T09:48:17.360Z,20.10
2023-05-22T09:51:23.791Z,19.35
2023-05-22T09:54:27.180Z,19.47
2023-05-22T09:57:43.252Z,19.52
2023-05-22T10:00:52.142Z,19.22
2023-05-22T10:03:57.287Z,20.74
2023-05-22T10:07:03.703Z,20.83
2023-05-22T10:10:12.128Z,18.51
2023-05-22T10:13:15.065Z,17.89
2023-05-22T10:16:17.851Z,17.01
2023-05-22T10:19:21.382Z,19.51
2023-05-22T10:22:26.588Z,19.02
2023-05-22T10:25:30.333Z,17.50
2023-05-22T10:28:57.313Z,17.43
2023-05-22T10:32:35.831Z,17.04
2023-05-22T10:36:04.839Z,18.02
2023-05-22T10:39:26.590Z,20.80
2023-05-22T10:42:33.242Z,24.63
2023-05-22T10:45:36.787Z,24.92
2023-05-22T10:48:40.624Z,22.65
2023-05-22T10:51:45.299Z,20.47
2023-05-22T10:54:53.565Z,20.04
2023-05-22T10:57:57.089Z,17.29
2023-05-22T11:01:18.958Z,17.94
2023-05-22T11:04:25.806Z,18.37
2023-05-22T11:07:40.696Z,19.14
2023-05-22T11:10:59.034Z,18.06
2023-05-22T11:14:05.352Z,19.59
2023-05-22T11:17:07.933Z,20.31
2023-05-22T11:20:20.318Z,19.90
2023-05-22T11:23:25.692Z,21.73
2023-05-22T11:26:28.324Z,22.38
2023-05-22T11:29:31.020Z,26.80
2023-05-22T11:32:36.536Z,26.24
2023-05-22T11:35:40.053Z,26.11
2023-05-22T11:38:43.202Z,26.01
2023-05-22T11:41:45.478Z,26.99
2023-05-22T11:44:48.164Z,28.56
2023-05-22T11:47:50.849Z,27.63
2023-05-22T11:50:53.633Z,24.28
2023-05-22T11:53:57.298Z,25.50
2023-05-22T11:56:59.638Z,23.12
2023-05-22T12:00:04.236Z,21.60
2023-05-22T12:03:14.273Z,22.72
2023-05-22T12:06:18.153Z,26.94
2023-05-22T12:09:20.788Z,21.85
2023-05-22T12:12:23.306Z,22.72
2023-05-22T12:15:25.789Z,23.77
2023-05-22T12:18:36.889Z,24.57
2023-05-22T12:21:40.972Z,23.74
2023-05-22T12:24:46.319Z,23.21
2023-05-22T12:27:48.659Z,23.20
2023-05-22T12:30:57.912Z,23.16
2023-05-22T12:34:01.467Z,27.69
2023-05-22T12:37:03.828Z,29.30
2023-05-22T12:40:06.903Z,30.25
2023-05-22T12:43:09.219Z,30.11
2023-05-22T12:46:11.559Z,29.05
2023-05-22T12:49:13.863Z,35.09
2023-05-22T12:52:16.172Z,30.58
2023-05-22T12:55:18.514Z,31.78
2023-05-22T12:58:20.847Z,31.62
2023-05-22T13:01:24.448Z,32.21
2023-05-22T13:04:26.862Z,32.85
2023-05-22T13:07:29.225Z,33.90
2023-05-22T13:10:31.668Z,32.92
2023-05-22T13:13:33.999Z,31.69
2023-05-22T13:16:36.801Z,33.55
2023-05-22T13:19:39.320Z,34.07
2023-05-22T13:22:41.891Z,33.41
2023-05-22T13:25:44.250Z,33.49
2023-05-22T13:28:46.738Z,34.46
2023-05-22T13:31:49.131Z,34.33
2023-05-22T13:34:51.448Z,34.36
2023-05-22T13:37:53.957Z,35.04
2023-05-22T13:40:56.334Z,33.58
2023-05-22T13:43:58.689Z,32.55
2023-05-22T13:47:01.159Z,34.38
2023-05-22T13:50:03.666Z,34.12
2023-05-22T13:53:06.050Z,33.33
2023-05-22T13:56:08.394Z,34.63
2023-05-22T13:59:10.842Z,34.68
2023-05-22T14:02:13.511Z,33.29
2023-05-22T14:05:15.939Z,33.05
2023-05-22T14:08:18.323Z,33.56
2023-05-22T14:11:21.729Z,33.38
2023-05-22T14:14:24.898Z,32.27
2023-05-22T14:17:27.221Z,34.57
2023-05-22T14:20:35.059Z,34.87
2023-05-22T14:23:37.545Z,33.39
2023-05-22T14:26:41.448Z,33.69
2023-05-22T14:29:46.317Z,33.15
2023-05-22T14:33:05.685Z,34.27
2023-05-22T14:36:10.062Z,33.65
2023-05-22T14:42:31.661Z,34.00
2023-05-22T14:45:34.694Z,34.16
2023-05-22T14:48:37.291Z,33.92
2023-05-22T14:51:39.576Z,34.07
2023-05-22T14:54:42.787Z,33.53
2023-05-22T14:57:45.522Z,34.37
2023-05-22T15:00:47.782Z,34.76
2023-05-22T15:03:50.071Z,36.62
2023-05-22T15:06:52.403Z,37.17
2023-05-22T15:09:56.450Z,34.26
2023-05-22T15:12:58.718Z,34.10
2023-05-22T15:16:01.376Z,34.63
2023-05-22T15:19:03.770Z,34.58
2023-05-22T15:22:18.890Z,34.13
2023-05-22T15:25:22.116Z,36.87
2023-05-22T15:28:24.598Z,36.97
2023-05-22T15:31:30.974Z,36.29
2023-05-22T15:34:33.284Z,34.52
2023-05-22T15:37:36.569Z,34.13
2023-05-22T15:40:43.424Z,34.76
2023-05-22T15:43:46.468Z,34.92
2023-05-22T15:46:48.733Z,33.59
2023-05-22T15:49:51.243Z,35.44
2023-05-22T15:52:53.532Z,35.33
2023-05-22T15:55:55.791Z,34.14
2023-05-22T15:58:58.281Z,34.21
2023-05-22T16:02:00.667Z,35.35
2023-05-22T16:05:02.976Z,35.56
2023-05-22T16:08:12.400Z,36.26
2023-05-22T16:11:14.688Z,35.09
2023-05-22T16:14:17.150Z,35.87
2023-05-22T16:17:19.474Z,35.90
2023-05-22T16:20:22.738Z,42.44
2023-05-22T16:23:25.199Z,42.21
2023-05-22T16:26:27.553Z,44.68
2023-05-22T16:29:32.267Z,45.03
2023-05-22T16:32:34.777Z,44.72
2023-05-22T16:35:37.143Z,45.20
2023-05-22T16:38:39.551Z,48.81
2023-05-22T16:41:41.891Z,47.42
2023-05-22T16:44:44.268Z,45.86
2023-05-22T16:47:46.621Z,43.77
2023-05-22T16:50:48.988Z,43.87
2023-05-22T16:53:51.300Z,44.11
2023-05-22T16:56:53.694Z,44.77
2023-05-22T16:59:57.825Z,45.39
2023-05-22T17:03:00.650Z,46.20
2023-05-22T17:06:03.660Z,46.24
2023-05-22T17:09:05.941Z,46.94
2023-05-22T17:12:08.897Z,48.43
2023-05-22T17:15:11.895Z,47.62
2023-05-22T17:18:17.772Z,51.04
2023-05-22T17:21:20.637Z,48.15
2023-05-22T17:24:22.984Z,48.53
2023-05-22T17:27:35.418Z,48.42
2023-05-22T17:30:39.303Z,48.87
2023-05-22T17:33:43.320Z,49.83
2023-05-22T17:36:45.670Z,49.84
2023-05-22T17:39:47.989Z,49.11
2023-05-22T17:42:50.321Z,49.28
2023-05-22T17:45:53.828Z,49.94
2023-05-22T17:48:56.509Z,52.61
2023-05-22T17:51:58.835Z,52.35
2023-05-22T17:55:01.156Z,53.30
2023-05-22T17:58:03.499Z,55.32
2023-05-22T18:01:08.146Z,51.27
2023-05-22T18:04:12.364Z,52.22
2023-05-22T18:07:17.898Z,53.40
2023-05-22T18:10:25.969Z,52.21
2023-05-22T18:13:29.280Z,52.71
2023-05-22T18:16:36.276Z,54.01
2023-05-22T18:19:45.850Z,54.29
2023-05-22T18:22:50.203Z,54.35
2023-05-22T18:25:52.737Z,54.71
2023-05-22T18:28:58.690Z,56.43
2023-05-22T18:32:03.221Z,56.93
2023-05-22T18:35:08.150Z,55.87
2023-05-22T18:38:19.512Z,56.77
2023-05-22T18:41:22.450Z,56.29
2023-05-22T18:44:24.743Z,56.15
2023-05-22T18:47:27.120Z,58.61
2023-05-22T18:50:29.598Z,57.04
2023-05-22T18:53:31.940Z,57.32
2023-05-22T18:56:34.225Z,57.01
2023-05-22T18:59:37.267Z,57.11
2023-05-22T19:02:39.615Z,59.34
2023-05-22T19:05:43.049Z,58.79
2023-05-22T19:08:45.738Z,59.39
2023-05-22T19:11:48.102Z,60.37
2023-05-22T19:15:01.798Z,61.65
2023-05-22T19:18:04.251Z,57.02
2023-05-22T19:21:08.249Z,60.30
2023-05-22T19:24:16.429Z,58.94
2023-05-22T19:27:22.971Z,58.66
2023-05-22T19:30:27.174Z,59.01
2023-05-22T19:33:35.923Z,60.63
2023-05-22T19:36:48.799Z,61.26
2023-05-22T19:39:51.312Z,61.17
2023-05-22T19:42:57.276Z,61.09
2023-05-22T19:46:02.723Z,62.96
2023-05-22T19:49:09.105Z,62.55
2023-05-22T19:52:21.204Z,62.36
2023-05-22T19:55:27.333Z,62.82
2023-05-22T19:58:30.051Z,63.36
2023-05-22T20:01:37.193Z,62.51
2023-05-22T20:04:44.028Z,63.79
2023-05-22T20:07:49.415Z,63.07
2023-05-22T20:11:01.125Z,63.35
2023-05-22T20:14:08.049Z,63.41
2023-05-22T20:17:13.488Z,63.15
2023-05-22T20:20:22.204Z,63.74
2023-05-22T20:23:28.090Z,63.60
2023-05-22T20:26:34.103Z,64.85
2023-05-22T20:29:36.923Z,64.93
2023-05-22T20:32:40.378Z,64.57
2023-05-22T20:35:43.910Z,63.79
2023-05-22T20:38:47.525Z,64.10
2023-05-22T20:41:50.528Z,65.96
2023-05-22T20:45:05.532Z,64.49
2023-05-22T20:48:09.359Z,66.50
2023-05-22T20:51:21.114Z,65.41
2023-05-22T20:54:23.486Z,65.33
2023-05-22T20:57:27.042Z,66.40
2023-05-22T21:00:32.071Z,67.10
2023-05-22T21:03:34.703Z,67.56
2023-05-22T21:06:37.109Z,65.17
2023-05-22T21:09:39.493Z,64.84
2023-05-22T21:12:41.791Z,65.18
2023-05-22T21:15:44.133Z,66.85
2023-05-22T21:18:46.698Z,67.05
2023-05-22T21:21:48.990Z,68.03
2023-05-22T21:24:51.317Z,68.21
2023-05-22T21:27:54.544Z,69.05
2023-05-22T21:30:56.906Z,69.73
2023-05-22T21:33:59.239Z,70.24
2023-05-22T21:37:01.551Z,71.03
2023-05-22T21:40:04.079Z,70.48
2023-05-22T21:43:06.568Z,71.51
2023-05-22T21:46:08.911Z,72.18
2023-05-22T21:49:11.208Z,72.53
2023-05-22T21:52:15.574Z,73.95
2023-05-22T21:55:17.884Z,74.42
2023-05-22T21:58:20.427Z,74.15
2023-05-22T22:01:23.529Z,73.94
2023-05-22T22:04:25.830Z,73.47
2023-05-22T22:07:28.109Z,73.12
2023-05-22T22:10:30.536Z,73.86
2023-05-22T22:13:32.908Z,72.91
2023-05-22T22:16:36.096Z,73.07
2023-05-22T22:19:38.573Z,74.67
2023-05-22T22:22:41.112Z,74.55
2023-05-22T22:25:43.365Z,74.82
2023-05-22T22:28:45.940Z,74.12
2023-05-22T22:31:48.338Z,76.07
2023-05-22T22:34:54.624Z,75.18
2023-05-22T22:37:56.910Z,76.10
2023-05-22T22:41:00.451Z,76.16
2023-05-22T22:44:02.918Z,76.43
2023-05-22T22:47:05.552Z,76.10
2023-05-22T22:50:09.997Z,76.14
2023-05-22T22:53:12.336Z,77.10
2023-05-22T22:56:14.827Z,77.09
2023-05-22T22:59:17.527Z,77.39
2023-05-22T23:02:19.869Z,76.76
2023-05-22T23:05:22.920Z,78.46
2023-05-22T23:08:25.962Z,77.90
2023-05-22T23:11:37.469Z,78.60
2023-05-22T23:14:39.950Z,78.56
2023-05-22T23:17:42.310Z,79.02
2023-05-22T23:20:44.670Z,77.33
2023-05-22T23:23:46.993Z,77.14
2023-05-22T23:26:49.298Z,77.68
2023-05-22T23:29:51.756Z,77.39
2023-05-22T23:32:54.116Z,78.41
2023-05-22T23:35:56.465Z,78.13
2023-05-22T23:38:58.736Z,78.33
2023-05-22T23:42:02.231Z,78.92
2023-05-22T23:45:05.006Z,78.94
2023-05-22T23:48:07.415Z,78.41
2023-05-22T23:51:10.101Z,77.49
2023-05-22T23:54:13.192Z,78.28
2023-05-22T23:57:15.703Z,78.61
